CheckWX is a tool to help pilots better visualize weather data.  It is not intended as a substitute for an official pre-flight weather briefing.

01:51:36 UTC

FNDU TAF
Dundo Airport
Chitato, Angola
TAF FNDU 182245Z 1900/1912 VRB03KT 9000 SCT023 BECMG 1910/1912 27010KT 9999 FEW025 SCT030

Mar-19@
00:00 UTC

Mar-19 @ 00:00 UTC

Mar-19@
10:00 UTC

Mar-19 @ 10:00 UTC

TAF FNDU 182245Z 1900/1912 VRB03KT 9000 SCT023
Wind
  • Variable at 3 KTS
Cloud Levels
  • Scattered at 2,300' AGL

Mar-19@
10:00 UTC

Mar-19 @ 10:00 UTC

Mar-19@
12:00 UTC

Mar-19 @ 12:00 UTC

BECMG 1910/1912 27010KT 9999 FEW025 SCT030

Becoming

Becoming Conditions expected by Tue, Mar 19, 2019 @ 12:00 UTC

Wind
  • 270° at 10 KTS
Cloud Levels
  • Few at 2,500' AGL
  • Scattered at 3,000' AGL